Time;durP1;ratioP1;P1;durP2;ratioP2;P2;SDS_P1;SDS_P2;PMS_P1;PMS_P2;Temp;Humidity;BMP_temperature;BMP_pressure;BME280_temperature;BME280_humidity;BME280_pressure;Samples;Min_cycle;Max_cycle;Signal;HPM_P1;HPM_P2
2023/02/19 00:00:16;;;;;;;1.63;1.05;;;;;;;9.33;100.00;96262.34;1034080;28;20034;-70
2023/02/19 00:00:47;;;;;;;1.63;1.00;;;;;;;9.33;100.00;96257.09;1030359;28;20019;-71
2023/02/19 00:01:19;;;;;;;1.02;0.90;;;;;;;9.31;100.00;96256.53;1030300;28;20045;-70
2023/02/19 00:01:49;;;;;;;1.10;0.98;;;;;;;9.32;100.00;96248.44;1030400;28;20023;-70
2023/02/19 00:02:20;;;;;;;3.22;1.30;;;;;;;9.33;100.00;96251.88;1026114;28;20274;-70
2023/02/19 00:02:51;;;;;;;1.15;1.00;;;;;;;9.32;100.00;96250.25;1030318;28;20026;-70
2023/02/19 00:03:22;;;;;;;1.05;0.90;;;;;;;9.30;100.00;96249.72;1026451;28;20030;-69
2023/02/19 00:03:54;;;;;;;2.70;1.08;;;;;;;9.30;100.00;96249.72;1028010;28;20281;-69
2023/02/19 00:04:24;;;;;;;2.33;1.10;;;;;;;9.24;100.00;96241.00;1026126;28;20508;-72
2023/02/19 00:04:55;;;;;;;1.42;0.90;;;;;;;9.30;100.00;96241.88;1026042;28;20266;-71
2023/02/19 00:05:25;;;;;;;1.25;0.95;;;;;;;9.30;100.00;96254.97;1026092;28;20027;-70
2023/02/19 00:05:55;;;;;;;1.40;1.10;;;;;;;9.30;100.00;96249.72;1026432;28;20113;-69
2023/02/19 00:06:27;;;;;;;2.58;1.27;;;;;;;9.23;100.00;96243.88;1029774;28;20027;-70
2023/02/19 00:06:57;;;;;;;1.38;1.13;;;;;;;9.30;100.00;96249.72;1030498;28;20018;-70
2023/02/19 00:07:28;;;;;;;1.58;0.93;;;;;;;9.30;100.00;96245.28;1034385;28;20261;-69
2023/02/19 00:07:58;;;;;;;1.30;0.95;;;;;;;9.30;100.00;96249.72;1030198;28;20027;-72
2023/02/19 00:08:30;;;;;;;1.45;1.02;;;;;;;9.29;100.00;96248.13;1030066;28;20041;-72
2023/02/19 00:09:01;;;;;;;1.27;1.00;;;;;;;9.27;100.00;96245.75;1030225;28;20018;-70
2023/02/19 00:09:32;;;;;;;1.00;0.90;;;;;;;9.27;100.00;96247.59;1029816;28;20861;-71
2023/02/19 00:10:02;;;;;;;1.50;0.85;;;;;;;9.24;100.00;96246.22;1040689;28;20753;-70
2023/02/19 00:10:32;;;;;;;1.10;1.00;;;;;;;9.24;100.00;96245.44;1042170;28;20025;-70
2023/02/19 00:11:07;;;;;;;1.83;0.95;;;;;;;9.18;100.00;96236.72;1042391;28;20052;-71
2023/02/19 00:11:37;;;;;;;1.02;0.88;;;;;;;9.19;100.00;96235.69;1030374;28;20033;-70
2023/02/19 00:12:08;;;;;;;1.30;1.17;;;;;;;9.25;100.00;96234.72;1018242;29;20704;-73
2023/02/19 00:12:38;;;;;;;0.98;0.75;;;;;;;9.24;100.00;96237.59;1022246;29;20091;-68
2023/02/19 00:13:09;;;;;;;3.42;1.50;;;;;;;9.20;100.00;96240.69;1026003;28;20035;-73
2023/02/19 00:13:44;;;;;;;1.10;0.95;;;;;;;9.19;100.00;96233.88;1026193;28;20653;-70
2023/02/19 00:14:16;;;;;;;0.65;0.65;;;;;;;9.20;100.00;96232.84;1024475;28;20422;-71
2023/02/19 00:14:47;;;;;;;1.42;1.00;;;;;;;9.20;100.00;96240.69;1025884;28;20357;-71
2023/02/19 00:15:17;;;;;;;1.50;1.23;;;;;;;9.20;100.00;96239.91;1022958;28;20263;-71
2023/02/19 00:15:48;;;;;;;4.93;1.15;;;;;;;9.18;100.00;96236.72;1027224;28;20030;-70
2023/02/19 00:16:29;;;;;;;1.33;1.10;;;;;;;9.12;100.00;96228.03;1030211;28;20514;-70
2023/02/19 00:16:59;;;;;;;1.10;0.90;;;;;;;9.14;100.00;96238.22;1030105;28;20014;-70
2023/02/19 00:17:30;;;;;;;2.92;1.00;;;;;;;9.14;100.00;96235.63;1030108;28;20272;-72
2023/02/19 00:18:01;;;;;;;1.35;0.77;;;;;;;9.15;100.00;96235.41;1030204;28;20050;-69
2023/02/19 00:18:31;;;;;;;1.83;1.10;;;;;;;9.13;100.00;96232.22;1030241;28;20112;-71
2023/02/19 00:19:03;;;;;;;1.83;1.10;;;;;;;9.12;100.00;96224.59;1030045;28;20041;-70
2023/02/19 00:19:34;;;;;;;0.70;0.70;;;;;;;9.17;100.00;96235.13;1033647;28;20017;-70
2023/02/19 00:20:05;;;;;;;1.23;0.90;;;;;;;9.09;100.00;96223.25;1034358;28;20265;-68
2023/02/19 00:20:35;;;;;;;1.25;0.90;;;;;;;9.15;100.00;96235.41;1034182;28;20022;-69
2023/02/19 00:21:06;;;;;;;1.88;1.13;;;;;;;9.12;100.00;96238.50;1029943;28;20023;-72
2023/02/19 00:21:36;;;;;;;1.70;1.02;;;;;;;9.12;100.00;96233.25;1026268;28;20015;-69
2023/02/19 00:22:07;;;;;;;1.83;1.10;;;;;;;9.12;100.00;96233.25;1029661;28;20030;-68
2023/02/19 00:22:37;;;;;;;1.48;1.00;;;;;;;9.09;100.00;96228.50;1030450;28;20026;-71
2023/02/19 00:23:08;;;;;;;0.95;0.88;;;;;;;9.10;100.00;96224.06;1034024;28;20026;-70
2023/02/19 00:23:38;;;;;;;0.88;0.80;;;;;;;9.01;100.00;96209.78;1034118;28;20033;-71
2023/02/19 00:24:09;;;;;;;0.98;0.90;;;;;;;9.02;100.00;96217.41;1030363;28;20026;-69
2023/02/19 00:24:40;;;;;;;1.48;1.25;;;;;;;9.06;100.00;96223.75;1026193;28;20014;-70
2023/02/19 00:25:11;;;;;;;1.00;0.88;;;;;;;9.00;100.00;96219.47;1023062;28;20279;-70
2023/02/19 00:25:41;;;;;;;2.08;1.30;;;;;;;9.06;100.00;96228.97;1022584;28;20042;-71
2023/02/19 00:26:12;;;;;;;1.80;1.15;;;;;;;9.06;100.00;96228.19;1026355;28;20060;-69
2023/02/19 00:26:43;;;;;;;1.88;0.98;;;;;;;9.02;100.00;96213.97;1026530;28;20048;-69
2023/02/19 00:27:13;;;;;;;1.05;0.98;;;;;;;9.10;100.00;96218.81;1033957;28;20045;-70
2023/02/19 00:27:44;;;;;;;1.17;1.08;;;;;;;9.10;100.00;96224.06;1030397;28;20273;-70
2023/02/19 00:28:14;;;;;;;1.20;0.80;;;;;;;9.11;100.00;96225.63;1030142;28;20464;-69
2023/02/19 00:28:45;;;;;;;1.88;1.08;;;;;;;9.07;100.00;96221.91;1030405;28;20011;-69
2023/02/19 00:29:19;;;;;;;1.25;1.00;;;;;;;9.10;100.00;96224.84;1033672;28;20022;-70
2023/02/19 00:29:51;;;;;;;3.40;1.38;;;;;;;9.11;100.00;96223.78;1026153;28;20274;-70
2023/02/19 00:30:21;;;;;;;1.88;1.42;;;;;;;9.09;100.00;96228.50;1030894;28;20272;-69
2023/02/19 00:30:52;;;;;;;1.08;0.80;;;;;;;9.08;100.00;96220.88;1034370;28;20638;-69
2023/02/19 00:31:26;;;;;;;2.28;1.00;;;;;;;9.07;100.00;96219.28;1033916;28;20041;-68
2023/02/19 00:31:57;;;;;;;1.05;0.95;;;;;;;9.06;100.00;96223.75;1034522;28;20080;-69
2023/02/19 00:32:27;;;;;;;1.38;0.93;;;;;;;9.04;100.00;96215.31;1038064;28;20365;-69
2023/02/19 00:32:58;;;;;;;2.15;1.10;;;;;;;9.05;100.00;96221.34;1030072;28;20019;-72
2023/02/19 00:33:28;;;;;;;2.00;0.93;;;;;;;9.00;100.00;96209.00;1030098;28;20073;-69
2023/02/19 00:34:03;;;;;;;2.25;1.10;;;;;;;9.05;100.00;96213.50;1029357;28;20018;-69
2023/02/19 00:34:33;;;;;;;0.98;0.90;;;;;;;9.06;100.00;96218.50;1030240;28;20101;-69
2023/02/19 00:35:04;;;;;;;1.00;0.90;;;;;;;9.01;100.00;96217.63;1030203;28;20285;-71
2023/02/19 00:35:35;;;;;;;1.38;1.00;;;;;;;8.99;100.00;96217.88;1029705;28;20030;-69
2023/02/19 00:36:05;;;;;;;1.10;1.00;;;;;;;9.05;100.00;96216.91;1026375;28;20070;-69
2023/02/19 00:36:37;;;;;;;0.90;0.85;;;;;;;9.08;100.00;96220.88;1030404;28;20030;-70
2023/02/19 00:37:08;;;;;;;2.60;1.48;;;;;;;9.05;100.00;96211.66;1034411;28;20565;-73
2023/02/19 00:37:38;;;;;;;1.88;1.38;;;;;;;9.06;100.00;96217.72;1038453;28;20275;-70
2023/02/19 00:38:09;;;;;;;1.92;1.00;;;;;;;8.99;100.00;96207.41;1038094;28;20026;-69
2023/02/19 00:38:40;;;;;;;2.00;1.00;;;;;;;8.98;100.00;96211.03;1026207;28;20023;-72
2023/02/19 00:39:14;;;;;;;1.52;1.17;;;;;;;9.04;100.00;96215.31;1014451;29;20028;-70
2023/02/19 00:39:44;;;;;;;4.53;1.50;;;;;;;9.05;100.00;96216.09;1022497;28;20023;-70
2023/02/19 00:40:15;;;;;;;1.15;1.05;;;;;;;9.09;100.00;96218.03;1027462;28;20273;-70
2023/02/19 00:40:45;;;;;;;1.23;0.90;;;;;;;9.07;100.00;96212.22;1038180;28;20052;-69
2023/02/19 00:41:18;;;;;;;2.72;1.33;;;;;;;9.10;100.00;96218.81;1038509;28;20029;-68
2023/02/19 00:41:49;;;;;;;1.30;1.08;;;;;;;9.09;100.00;96220.66;1033770;28;20028;-69
2023/02/19 00:42:19;;;;;;;1.15;1.00;;;;;;;9.10;100.00;96219.59;1029985;28;20281;-68
2023/02/19 00:42:50;;;;;;;1.73;1.15;;;;;;;9.09;100.00;96218.03;1031554;28;20396;-71
2023/02/19 00:43:21;;;;;;;1.15;0.90;;;;;;;9.11;100.00;96221.19;1022695;28;20661;-69
2023/02/19 00:43:55;;;;;;;0.98;0.80;;;;;;;9.11;100.00;96218.56;1022331;28;20042;-69
2023/02/19 00:44:26;;;;;;;2.35;1.00;;;;;;;9.10;100.00;96218.81;1022174;29;20026;-70
2023/02/19 00:44:56;;;;;;;1.05;0.93;;;;;;;9.09;100.00;96217.25;1023315;28;20266;-69
2023/02/19 00:45:27;;;;;;;1.65;0.80;;;;;;;9.07;100.00;96217.47;1030656;28;20023;-69
2023/02/19 00:45:57;;;;;;;1.23;1.08;;;;;;;9.05;100.00;96216.91;1030022;28;20022;-69
2023/02/19 00:46:33;;;;;;;2.05;1.05;;;;;;;9.10;100.00;96209.13;1029509;28;20019;-69
2023/02/19 00:47:03;;;;;;;2.00;1.23;;;;;;;9.09;100.00;96218.03;1030080;28;20098;-69
2023/02/19 00:47:34;;;;;;;1.40;0.95;;;;;;;9.09;100.00;96223.25;1028351;28;20901;-70
2023/02/19 00:48:04;;;;;;;1.45;1.17;;;;;;;9.04;100.00;96220.56;1033967;28;20021;-72
2023/02/19 00:48:35;;;;;;;1.63;1.13;;;;;;;9.09;100.00;96218.03;1030049;28;20159;-71
2023/02/19 00:49:06;;;;;;;0.70;0.70;;;;;;;9.04;100.00;96217.94;1030000;28;20070;-69
2023/02/19 00:49:36;;;;;;;2.55;1.13;;;;;;;9.01;100.00;96210.56;1021055;28;20106;-70
2023/02/19 00:50:07;;;;;;;1.63;1.02;;;;;;;9.04;100.00;96214.53;1025968;28;20361;-70
2023/02/19 00:50:38;;;;;;;1.67;1.10;;;;;;;9.01;100.00;96207.94;1021556;29;20748;-72
2023/02/19 00:51:08;;;;;;;1.65;1.15;;;;;;;9.06;100.00;96217.72;1022137;28;20432;-71
2023/02/19 00:51:39;;;;;;;1.52;1.02;;;;;;;9.07;100.00;96217.47;1025914;28;20034;-69
2023/02/19 00:52:09;;;;;;;1.42;1.10;;;;;;;9.00;100.00;96209.00;1026183;28;20775;-70
2023/02/19 00:52:39;;;;;;;2.08;1.38;;;;;;;9.09;100.00;96219.84;1029623;28;20026;-69
2023/02/19 00:53:10;;;;;;;1.23;1.13;;;;;;;9.08;100.00;96221.66;1030071;28;20029;-69
2023/02/19 00:53:40;;;;;;;1.33;0.90;;;;;;;9.06;100.00;96218.50;1026025;28;20029;-70
2023/02/19 00:54:11;;;;;;;1.50;0.90;;;;;;;8.99;100.00;96220.50;1026448;28;20034;-70
2023/02/19 00:54:42;;;;;;;2.58;1.30;;;;;;;9.05;100.00;96232.59;1027966;28;20078;-69
2023/02/19 00:55:12;;;;;;;2.17;1.20;;;;;;;9.08;100.00;96220.88;1028686;28;20027;-70
2023/02/19 00:55:43;;;;;;;1.60;1.02;;;;;;;9.08;100.00;96226.88;1022063;28;20508;-71
2023/02/19 00:56:13;;;;;;;1.38;1.10;;;;;;;9.09;100.00;96225.88;1022102;28;20020;-69
2023/02/19 00:56:44;;;;;;;1.83;1.30;;;;;;;9.03;100.00;96218.19;1026363;28;20043;-70
2023/02/19 00:57:14;;;;;;;2.75;0.93;;;;;;;9.07;100.00;96212.22;1030306;28;20511;-70
2023/02/19 00:57:45;;;;;;;2.58;1.33;;;;;;;9.06;100.00;96212.47;1034624;28;20087;-69
2023/02/19 00:58:15;;;;;;;1.30;0.90;;;;;;;9.07;100.00;96224.53;1030782;28;20535;-69
2023/02/19 00:58:46;;;;;;;2.75;1.10;;;;;;;9.02;100.00;96213.97;1027445;28;20080;-69
2023/02/19 00:59:16;;;;;;;1.63;1.15;;;;;;;9.09;100.00;96228.50;1032496;28;20088;-69
2023/02/19 00:59:47;;;;;;;4.30;1.20;;;;;;;9.08;100.00;96221.66;1030111;28;20027;-70
2023/02/19 01:00:17;;;;;;;1.40;1.13;;;;;;;9.02;100.00;96208.72;1026588;28;20227;-69
2023/02/19 01:00:48;;;;;;;1.65;0.95;;;;;;;9.09;100.00;96218.03;1029865;28;20030;-72
2023/02/19 01:01:18;;;;;;;1.02;0.90;;;;;;;9.06;100.00;96218.50;1033952;28;20022;-71
2023/02/19 01:01:49;;;;;;;1.40;0.93;;;;;;;9.09;100.00;96218.03;1031363;28;20029;-71
2023/02/19 01:02:19;;;;;;;1.98;1.20;;;;;;;9.04;100.00;96209.31;1029880;28;20014;-68
2023/02/19 01:02:50;;;;;;;1.30;1.00;;;;;;;9.15;100.00;96218.88;1025985;28;20038;-69
2023/02/19 01:03:23;;;;;;;1.50;1.10;;;;;;;9.03;100.00;96198.03;1026759;28;20531;-71
2023/02/19 01:03:53;;;;;;;1.42;1.20;;;;;;;9.15;100.00;96218.88;1028134;28;20110;-69
2023/02/19 01:04:24;;;;;;;2.00;1.42;;;;;;;9.07;100.00;96208.81;1030384;28;20273;-70
2023/02/19 01:04:54;;;;;;;2.00;1.02;;;;;;;9.13;100.00;96213.09;1035794;28;20033;-70
2023/02/19 01:05:24;;;;;;;1.70;1.13;;;;;;;9.12;100.00;96214.94;1033740;28;20406;-69
2023/02/19 01:05:55;;;;;;;1.70;1.10;;;;;;;9.12;100.00;96222.78;1034312;28;20112;-70
2023/02/19 01:06:28;;;;;;;1.48;0.90;;;;;;;9.10;100.00;96211.75;1029730;28;20029;-70
2023/02/19 01:06:59;;;;;;;1.63;1.25;;;;;;;9.06;100.00;96212.47;1024290;28;20019;-71
2023/02/19 01:07:29;;;;;;;1.58;1.00;;;;;;;9.08;100.00;96216.41;1022134;29;20290;-69
2023/02/19 01:08:00;;;;;;;1.30;1.20;;;;;;;9.09;100.00;96212.78;1018529;29;20024;-68
2023/02/19 01:08:30;;;;;;;1.80;1.20;;;;;;;9.11;100.00;96215.16;1022341;28;20878;-70
2023/02/19 01:09:02;;;;;;;2.30;0.82;;;;;;;9.09;100.00;96212.78;1026200;28;20038;-70
2023/02/19 01:09:32;;;;;;;1.30;1.20;;;;;;;9.11;100.00;96213.31;1033704;28;20026;-69
2023/02/19 01:10:03;;;;;;;1.13;0.98;;;;;;;9.03;100.00;96203.28;1038114;28;20268;-72
2023/02/19 01:10:34;;;;;;;1.40;1.02;;;;;;;9.08;100.00;96211.19;1033638;28;20161;-69
2023/02/19 01:11:04;;;;;;;1.90;1.13;;;;;;;9.09;100.00;96210.19;1029861;28;20057;-69
2023/02/19 01:11:35;;;;;;;1.75;1.15;;;;;;;9.10;100.00;96209.13;1026057;28;20128;-69
2023/02/19 01:12:05;;;;;;;2.15;1.05;;;;;;;9.09;100.00;96202.31;1022169;28;20035;-69
2023/02/19 01:12:36;;;;;;;2.30;1.23;;;;;;;9.11;100.00;96215.94;1021902;29;20440;-69
2023/02/19 01:13:06;;;;;;;2.80;1.30;;;;;;;9.05;100.00;96203.81;1018277;29;20079;-70
2023/02/19 01:13:37;;;;;;;1.80;1.17;;;;;;;9.09;100.00;96206.75;1018017;29;20031;-69
2023/02/19 01:14:08;;;;;;;1.73;0.80;;;;;;;9.09;100.00;96199.69;1022121;29;20016;-70
2023/02/19 01:14:39;;;;;;;1.35;1.15;;;;;;;9.14;100.00;96202.38;1017911;29;20123;-68
2023/02/19 01:15:09;;;;;;;1.27;1.00;;;;;;;9.08;100.00;96195.47;1020371;28;20283;-70
2023/02/19 01:15:40;;;;;;;2.03;1.00;;;;;;;9.13;100.00;96211.28;1026405;28;20025;-70
2023/02/19 01:16:12;;;;;;;2.13;1.20;;;;;;;9.10;100.00;96209.13;1030372;28;20570;-69
2023/02/19 01:16:42;;;;;;;1.38;0.75;;;;;;;9.16;100.00;96207.38;1036786;28;20033;-70
2023/02/19 01:17:13;;;;;;;2.75;1.05;;;;;;;9.15;100.00;96209.22;1034166;28;20268;-71
2023/02/19 01:17:43;;;;;;;1.75;1.17;;;;;;;9.17;100.00;96209.75;1030026;28;20026;-69
2023/02/19 01:18:14;;;;;;;2.38;0.95;;;;;;;9.11;100.00;96196.81;1030297;28;20451;-69
2023/02/19 01:18:44;;;;;;;1.85;1.13;;;;;;;9.15;100.00;96206.59;1025656;28;20046;-70
2023/02/19 01:19:15;;;;;;;1.15;0.80;;;;;;;9.17;100.00;96209.75;1021488;28;20027;-69
2023/02/19 01:19:45;;;;;;;2.33;1.20;;;;;;;9.14;100.00;96202.38;1022490;28;20015;-70
2023/02/19 01:20:16;;;;;;;1.00;0.90;;;;;;;9.19;100.00;96205.06;1032458;28;20038;-69
2023/02/19 01:20:46;;;;;;;2.28;1.10;;;;;;;9.16;100.00;96192.47;1025996;28;20559;-70
2023/02/19 01:21:21;;;;;;;1.55;1.02;;;;;;;9.16;100.00;96202.16;1034173;28;20683;-70
2023/02/19 01:21:51;;;;;;;1.08;0.90;;;;;;;9.13;100.00;96207.88;1035202;28;20161;-70
2023/02/19 01:22:22;;;;;;;1.23;0.88;;;;;;;9.12;100.00;96201.84;1034356;28;20357;-70
2023/02/19 01:22:52;;;;;;;1.77;1.10;;;;;;;9.16;100.00;96202.16;1029973;28;20023;-69
2023/02/19 01:23:22;;;;;;;1.30;0.93;;;;;;;9.06;100.00;96196.78;1021766;28;20468;-67
2023/02/19 01:23:53;;;;;;;1.85;0.88;;;;;;;9.14;100.00;96205.00;1030064;28;20048;-70
2023/02/19 01:24:24;;;;;;;1.80;1.10;;;;;;;9.12;100.00;96196.59;1030068;28;20027;-70
2023/02/19 01:24:54;;;;;;;1.77;1.00;;;;;;;9.14;100.00;96202.38;1034261;28;20025;-73
2023/02/19 01:25:24;;;;;;;1.67;1.00;;;;;;;9.10;100.00;96198.66;1033741;28;20052;-69
2023/02/19 01:25:55;;;;;;;1.38;0.85;;;;;;;9.10;100.00;96197.88;1022260;29;20023;-68
2023/02/19 01:26:28;;;;;;;5.32;1.10;;;;;;;9.07;100.00;96187.88;1022736;29;20031;-71
2023/02/19 01:26:58;;;;;;;2.35;1.20;;;;;;;9.15;100.00;96200.53;1020988;28;20023;-68
2023/02/19 01:27:29;;;;;;;1.65;1.00;;;;;;;9.11;100.00;96200.22;1022991;28;20829;-69
2023/02/19 01:27:59;;;;;;;1.10;1.00;;;;;;;8.94;100.00;96174.09;1026590;28;20037;-72
2023/02/19 01:28:30;;;;;;;2.35;1.40;;;;;;;9.09;100.00;96191.06;1022236;28;20016;-71
2023/02/19 01:29:00;;;;;;;1.27;1.05;;;;;;;9.02;100.00;96178.16;1026914;28;20508;-70
2023/02/19 01:29:31;;;;;;;1.60;1.30;;;;;;;9.10;100.00;96203.91;1034007;28;20026;-69
2023/02/19 01:30:01;;;;;;;1.92;1.40;;;;;;;9.07;100.00;96193.13;1030287;28;20114;-69
2023/02/19 01:30:36;;;;;;;1.40;1.00;;;;;;;9.21;100.00;96196.97;1029558;28;20018;-69
2023/02/19 01:31:07;;;;;;;2.88;1.00;;;;;;;9.14;100.00;96194.53;1031193;28;20058;-69
2023/02/19 01:31:38;;;;;;;1.40;1.30;;;;;;;9.20;100.00;96192.78;1026242;28;20370;-72
2023/02/19 01:32:09;;;;;;;1.30;0.93;;;;;;;9.16;100.00;96192.47;1024735;28;20337;-71
2023/02/19 01:32:39;;;;;;;2.00;1.05;;;;;;;9.16;100.00;96196.91;1026052;28;20030;-70
2023/02/19 01:33:09;;;;;;;1.42;0.80;;;;;;;9.13;100.00;96192.94;1026736;28;20617;-70
2023/02/19 01:33:46;;;;;;;1.33;1.10;;;;;;;9.11;100.00;96195.00;1031020;28;20029;-72
2023/02/19 01:34:16;;;;;;;1.85;1.05;;;;;;;9.12;100.00;96177.47;1026039;28;20082;-69
2023/02/19 01:34:47;;;;;;;1.20;0.90;;;;;;;9.16;100.00;96194.28;1018697;29;20267;-70
2023/02/19 01:35:17;;;;;;;2.58;1.10;;;;;;;9.14;100.00;96193.72;1022236;29;20034;-69
2023/02/19 01:35:48;;;;;;;1.60;0.90;;;;;;;9.14;100.00;96188.50;1022258;29;20094;-71
2023/02/19 01:36:18;;;;;;;3.13;1.15;;;;;;;9.10;100.00;96184.78;1022811;28;20023;-71
2023/02/19 01:36:49;;;;;;;1.40;1.05;;;;;;;9.03;100.00;96171.06;1030237;28;20715;-70
2023/02/19 01:37:19;;;;;;;1.65;1.20;;;;;;;9.11;100.00;96189.75;1030555;28;20074;-69
2023/02/19 01:37:49;;;;;;;2.03;1.10;;;;;;;9.12;100.00;96196.59;1035268;28;20091;-69
2023/02/19 01:38:20;;;;;;;1.60;1.00;;;;;;;9.12;100.00;96185.31;1034024;28;20022;-72
2023/02/19 01:38:50;;;;;;;1.33;0.90;;;;;;;9.09;100.00;96186.63;1026196;28;20062;-69
2023/02/19 01:39:21;;;;;;;1.30;0.98;;;;;;;9.09;100.00;96183.22;1017825;29;20095;-68
2023/02/19 01:39:51;;;;;;;1.88;1.25;;;;;;;9.06;100.00;96181.84;1018206;29;20746;-70
2023/02/19 01:40:22;;;;;;;1.50;1.10;;;;;;;9.11;100.00;96184.53;1014278;29;20054;-70
2023/02/19 01:40:54;;;;;;;0.80;0.80;;;;;;;9.13;100.00;96190.31;1015663;29;20032;-71
2023/02/19 01:41:25;;;;;;;1.80;0.90;;;;;;;9.13;100.00;96192.94;1018997;29;20050;-69
2023/02/19 01:41:57;;;;;;;1.83;1.13;;;;;;;9.12;100.00;96194.00;1018997;28;20847;-70
2023/02/19 01:42:27;;;;;;;2.65;1.20;;;;;;;9.05;100.00;96169.78;1023134;28;20382;-68
2023/02/19 01:42:58;;;;;;;1.35;1.10;;;;;;;9.14;100.00;96186.66;1022619;29;20298;-70
2023/02/19 01:43:30;;;;;;;1.38;0.95;;;;;;;9.15;100.00;96180.41;1022926;28;20434;-71
2023/02/19 01:44:27;;;;;;;3.70;1.20;;;;;;;9.16;100.00;96186.44;1024677;28;20031;-71
2023/02/19 01:45:22;;;;;;;1.15;0.90;;;;;;;9.14;100.00;96185.88;1025687;28;20254;-69
2023/02/19 01:45:53;;;;;;;1.58;1.23;;;;;;;9.20;100.00;96187.53;1022926;28;20286;-70
2023/02/19 01:46:27;;;;;;;1.10;1.00;;;;;;;9.20;100.00;96187.53;1025714;28;20258;-69
2023/02/19 01:46:58;;;;;;;1.30;1.00;;;;;;;9.19;100.00;96183.34;1030188;28;20603;-70
2023/02/19 01:47:28;;;;;;;1.60;0.90;;;;;;;9.18;100.00;96179.13;1027350;28;20262;-70
2023/02/19 01:48:09;;;;;;;1.48;0.98;;;;;;;9.17;100.00;96178.31;1029313;28;20019;-70
2023/02/19 01:48:40;;;;;;;1.83;0.80;;;;;;;9.18;100.00;96179.91;1035529;28;20118;-70
2023/02/19 01:49:19;;;;;;;1.45;1.10;;;;;;;9.15;100.00;96167.31;1030187;28;20651;-71
2023/02/19 01:49:53;;;;;;;1.70;1.13;;;;;;;9.18;100.00;96166.81;1032629;28;20089;-69
2023/02/19 01:50:26;;;;;;;1.65;1.02;;;;;;;9.17;100.00;96177.53;1026107;28;20251;-70
2023/02/19 01:50:59;;;;;;;1.70;0.80;;;;;;;9.15;100.00;96172.56;1036121;28;20379;-70
2023/02/19 01:51:30;;;;;;;2.60;1.33;;;;;;;9.14;100.00;96168.34;1038014;28;20260;-70
2023/02/19 01:52:04;;;;;;;1.80;1.05;;;;;;;9.17;100.00;96173.09;1041597;28;20263;-71
2023/02/19 01:52:35;;;;;;;1.85;1.00;;;;;;;9.18;100.00;96172.06;1022067;29;20405;-70
2023/02/19 01:53:06;;;;;;;1.10;0.98;;;;;;;9.13;100.00;96176.44;1026015;28;20277;-69
2023/02/19 01:53:38;;;;;;;1.42;1.10;;;;;;;9.15;100.00;96158.66;1030216;28;20065;-70
2023/02/19 01:54:09;;;;;;;1.55;1.17;;;;;;;9.17;100.00;96161.84;1026176;28;20118;-71
2023/02/19 01:54:40;;;;;;;1.38;1.02;;;;;;;9.16;100.00;96163.66;1031563;28;20281;-68
2023/02/19 01:55:11;;;;;;;2.58;1.17;;;;;;;9.18;100.00;96169.44;1022151;29;20118;-71
2023/02/19 01:55:41;;;;;;;1.05;0.90;;;;;;;9.18;100.00;96179.91;1030366;28;20025;-69
2023/02/19 01:56:15;;;;;;;1.15;1.00;;;;;;;9.15;100.00;96164.72;1021993;28;20023;-70
2023/02/19 01:56:45;;;;;;;1.40;0.90;;;;;;;9.15;100.00;96172.56;1023196;28;20027;-69
2023/02/19 01:57:19;;;;;;;1.85;0.93;;;;;;;9.13;100.00;96168.59;1026248;28;20254;-69
2023/02/19 01:57:51;;;;;;;1.45;1.10;;;;;;;9.10;100.00;96169.84;1031425;28;20022;-69
2023/02/19 01:58:23;;;;;;;4.88;0.95;;;;;;;9.16;100.00;96176.75;1030053;28;20345;-69
2023/02/19 01:58:53;;;;;;;2.50;1.02;;;;;;;9.12;100.00;96159.13;1033836;28;20276;-71
2023/02/19 01:59:24;;;;;;;1.73;1.20;;;;;;;9.17;100.00;96172.31;1037701;28;20618;-67
2023/02/19 01:59:57;;;;;;;1.33;1.00;;;;;;;9.15;100.00;96162.09;1027559;28;20117;-70
2023/02/19 02:00:27;;;;;;;1.50;1.10;;;;;;;9.22;100.00;96169.72;1026361;28;20086;-69
2023/02/19 02:00:58;;;;;;;1.38;1.02;;;;;;;9.23;100.00;96176.56;1029989;28;20332;-70
2023/02/19 02:01:29;;;;;;;1.00;0.90;;;;;;;9.25;100.00;96171.09;1029919;28;20128;-71
2023/02/19 02:01:59;;;;;;;1.30;0.93;;;;;;;9.20;100.00;96169.19;1026093;28;20360;-69
2023/02/19 02:02:30;;;;;;;1.67;1.27;;;;;;;9.24;100.00;96172.91;1021967;29;20022;-69
2023/02/19 02:03:01;;;;;;;1.10;1.00;;;;;;;9.22;100.00;96172.34;1029828;28;20022;-68
2023/02/19 02:03:31;;;;;;;1.00;0.90;;;;;;;9.20;100.00;96177.84;1030189;28;20018;-70
2023/02/19 02:04:01;;;;;;;2.45;1.35;;;;;;;9.21;100.00;96173.41;1034669;28;20106;-70
2023/02/19 02:04:32;;;;;;;1.15;1.05;;;;;;;9.25;100.00;96173.69;1035098;28;20472;-69
2023/02/19 02:05:03;;;;;;;1.42;1.00;;;;;;;9.24;100.00;96166.88;1026528;28;20547;-71
2023/02/19 02:05:57;;;;;;;1.20;1.10;;;;;;;9.29;100.00;96172.19;1022591;29;20023;-69
2023/02/19 02:06:30;;;;;;;1.75;1.20;;;;;;;9.21;100.00;96163.72;1025877;28;20044;-69
2023/02/19 02:07:02;;;;;;;1.17;1.00;;;;;;;9.23;100.00;96160.09;1026828;28;20385;-69
2023/02/19 02:10:49;;;;;;;1.45;1.02;;;;;;;9.17;100.00;96162.63;1032555;28;20309;-69
2023/02/19 02:11:20;;;;;;;1.60;1.10;;;;;;;9.18;100.00;96164.19;1030758;28;20264;-70
2023/02/19 02:11:51;;;;;;;1.35;1.00;;;;;;;9.15;100.00;96154.22;1030648;28;20048;-69
2023/02/19 02:12:21;;;;;;;1.45;1.15;;;;;;;9.18;100.00;96148.47;1034885;28;20022;-70
2023/02/19 02:12:55;;;;;;;0.82;0.82;;;;;;;9.16;100.00;96166.28;1031028;28;20258;-69
2023/02/19 02:13:26;;;;;;;2.00;1.25;;;;;;;9.15;100.00;96154.22;1030537;28;20022;-69
2023/02/19 02:13:56;;;;;;;1.40;1.10;;;;;;;9.10;100.00;96154.16;1025902;28;20415;-68
2023/02/19 02:14:29;;;;;;;2.10;1.20;;;;;;;9.15;100.00;96158.66;1025926;28;20054;-69
2023/02/19 02:14:59;;;;;;;1.63;1.30;;;;;;;9.08;100.00;96150.97;1026682;28;20019;-71
2023/02/19 02:15:42;;;;;;;1.85;1.33;;;;;;;9.13;100.00;96156.28;1030746;28;20273;-69
2023/02/19 02:16:29;;;;;;;2.72;1.10;;;;;;;9.14;100.00;96157.88;1028784;28;20019;-69
2023/02/19 02:17:08;;;;;;;2.00;1.50;;;;;;;9.10;100.00;96156.78;1021139;29;20274;-71
2023/02/19 02:17:45;;;;;;;2.33;1.83;;;;;;;9.07;100.00;96151.22;1026499;28;20736;-69
2023/02/19 02:18:27;;;;;;;1.15;1.02;;;;;;;9.03;100.00;96156.16;1018796;29;20351;-70
2023/02/19 02:19:16;;;;;;;1.95;1.20;;;;;;;9.02;100.00;96154.59;1017109;29;20268;-71
2023/02/19 02:20:18;;;;;;;1.80;0.90;;;;;;;9.04;100.00;96147.25;1018600;28;20263;-70
2023/02/19 02:21:21;;;;;;;1.58;1.20;;;;;;;9.00;100.00;96154.03;1037005;28;20241;-70
2023/02/19 02:21:57;;;;;;;0.85;0.80;;;;;;;8.97;100.00;96152.69;1039196;28;20740;-69
2023/02/19 02:22:33;;;;;;;1.80;1.27;;;;;;;8.93;100.00;96150.78;1039864;28;20264;-71
2023/02/19 02:23:15;;;;;;;1.75;1.10;;;;;;;8.92;100.00;96151.81;1030606;28;20770;-69
2023/02/19 02:24:07;;;;;;;2.40;1.40;;;;;;;8.96;100.00;96150.31;1030634;28;20269;-71
2023/02/19 02:25:16;;;;;;;1.65;1.15;;;;;;;8.93;100.00;96135.09;1032909;28;20273;-73
2023/02/19 02:25:55;;;;;;;2.88;1.40;;;;;;;8.90;100.00;96136.34;1035565;28;20259;-68
2023/02/19 02:26:41;;;;;;;2.78;1.45;;;;;;;8.91;100.00;96135.31;1037378;28;20245;-69
2023/02/19 02:27:35;;;;;;;1.75;1.00;;;;;;;8.90;100.00;96143.41;1039620;28;21169;-67
2023/02/19 02:28:33;;;;;;;1.70;1.23;;;;;;;8.89;100.00;96136.63;1039668;28;20266;-69
2023/02/19 02:29:20;;;;;;;1.88;1.17;;;;;;;8.94;100.00;96147.91;1035776;28;20355;-69
2023/02/19 02:30:11;;;;;;;1.95;1.27;;;;;;;8.92;100.00;96141.34;1029279;28;20659;-69
2023/02/19 02:30:49;;;;;;;1.98;1.00;;;;;;;8.94;100.00;96144.53;1031685;28;20291;-68
2023/02/19 02:31:26;;;;;;;1.60;1.23;;;;;;;8.96;100.00;96126.75;1028116;28;20250;-67
2023/02/19 02:32:08;;;;;;;2.03;1.40;;;;;;;8.98;100.00;96132.53;1031400;28;20312;-68
2023/02/19 02:32:56;;;;;;;2.25;1.10;;;;;;;9.00;100.00;96133.09;1023382;29;20302;-68
2023/02/19 02:33:36;;;;;;;1.17;1.00;;;;;;;9.01;100.00;96142.50;1023629;29;20258;-68
2023/02/19 02:34:19;;;;;;;1.23;0.95;;;;;;;9.01;100.00;96137.28;1027160;28;20752;-69
2023/02/19 02:34:56;;;;;;;1.88;1.20;;;;;;;8.98;100.00;96132.53;1024890;28;20034;-69
2023/02/19 02:35:46;;;;;;;2.25;1.27;;;;;;;8.87;100.00;96126.38;1030330;28;20294;-69
2023/02/19 02:36:23;;;;;;;3.03;1.40;;;;;;;8.90;100.00;96127.72;1039748;28;20264;-69
2023/02/19 02:36:54;;;;;;;1.40;0.90;;;;;;;8.84;100.00;96131.28;1027519;28;20364;-68
2023/02/19 02:37:25;;;;;;;2.67;1.40;;;;;;;8.77;100.00;96120.22;1035414;28;20271;-70
2023/02/19 02:37:57;;;;;;;1.65;1.08;;;;;;;8.87;100.00;96133.44;1029324;28;20790;-70